sensor_id;sensor_type;location;lat;lon;timestamp;temperature;humidity
20139;DHT22;10230;51.502;10.800;2022-08-20T08:12:47;24.40;99.90
20139;DHT22;10230;51.502;10.800;2022-08-20T08:15:20;24.50;99.90
20139;DHT22;10230;51.502;10.800;2022-08-20T08:17:47;24.50;99.90
20139;DHT22;10230;51.502;10.800;2022-08-20T08:20:14;24.40;99.90
20139;DHT22;10230;51.502;10.800;2022-08-20T08:22:40;24.40;99.90
20139;DHT22;10230;51.502;10.800;2022-08-20T08:25:09;24.30;99.90
20139;DHT22;10230;51.502;10.800;2022-08-20T08:27:35;24.30;99.90
20139;DHT22;10230;51.502;10.800;2022-08-20T08:30:03;24.40;99.90
20139;DHT22;10230;51.502;10.800;2022-08-20T08:32:29;24.40;99.90
20139;DHT22;10230;51.502;10.800;2022-08-20T08:34:57;24.30;99.90
20139;DHT22;10230;51.502;10.800;2022-08-20T08:37:23;24.30;99.90
20139;DHT22;10230;51.502;10.800;2022-08-20T08:39:49;24.20;99.90
20139;DHT22;10230;51.502;10.800;2022-08-20T08:45:28;24.40;99.90
20139;DHT22;10230;51.502;10.800;2022-08-20T08:47:56;24.70;99.90
20139;DHT22;10230;51.502;10.800;2022-08-20T08:50:27;24.90;99.90
20139;DHT22;10230;51.502;10.800;2022-08-20T08:55:24;25.30;99.90
20139;DHT22;10230;51.502;10.800;2022-08-20T09:00:20;26.00;99.90
20139;DHT22;10230;51.502;10.800;2022-08-20T09:07:49;27.00;99.90
20139;DHT22;10230;51.502;10.800;2022-08-20T09:12:43;27.20;99.90
20139;DHT22;10230;51.502;10.800;2022-08-20T09:15:09;27.10;99.90
20139;DHT22;10230;51.502;10.800;2022-08-20T09:17:35;27.00;99.90
20139;DHT22;10230;51.502;10.800;2022-08-20T09:20:02;26.90;99.90
20139;DHT22;10230;51.502;10.800;2022-08-20T09:22:28;26.70;99.90
20139;DHT22;10230;51.502;10.800;2022-08-20T09:24:55;26.60;99.90
20139;DHT22;10230;51.502;10.800;2022-08-20T09:27:21;26.50;99.90
20139;DHT22;10230;51.502;10.800;2022-08-20T09:29:47;26.30;99.90
20139;DHT22;10230;51.502;10.800;2022-08-20T09:32:16;26.20;99.90
20139;DHT22;10230;51.502;10.800;2022-08-20T09:34:49;26.10;99.90
20139;DHT22;10230;51.502;10.800;2022-08-20T09:37:16;25.90;99.90
20139;DHT22;10230;51.502;10.800;2022-08-20T09:39:42;25.70;99.90
20139;DHT22;10230;51.502;10.800;2022-08-20T09:44:38;25.30;99.90
20139;DHT22;10230;51.502;10.800;2022-08-20T09:47:04;25.20;99.90
20139;DHT22;10230;51.502;10.800;2022-08-20T09:49:30;25.10;99.90
20139;DHT22;10230;51.502;10.800;2022-08-20T09:51:57;25.10;99.90
20139;DHT22;10230;51.502;10.800;2022-08-20T09:54:24;25.00;99.90
20139;DHT22;10230;51.502;10.800;2022-08-20T09:56:55;25.00;99.90
20139;DHT22;10230;51.502;10.800;2022-08-20T09:59:21;25.00;99.90
20139;DHT22;10230;51.502;10.800;2022-08-20T10:01:47;25.00;99.90
20139;DHT22;10230;51.502;10.800;2022-08-20T10:04:13;25.00;99.90
20139;DHT22;10230;51.502;10.800;2022-08-20T10:06:40;25.00;99.90
20139;DHT22;10230;51.502;10.800;2022-08-20T10:09:06;25.10;99.90
20139;DHT22;10230;51.502;10.800;2022-08-20T10:11:32;25.20;99.90
20139;DHT22;10230;51.502;10.800;2022-08-20T10:13:57;25.30;99.90
20139;DHT22;10230;51.502;10.800;2022-08-20T10:16:23;25.40;99.90
20139;DHT22;10230;51.502;10.800;2022-08-20T10:18:49;25.60;99.90
20139;DHT22;10230;51.502;10.800;2022-08-20T10:21:15;25.80;99.90
20139;DHT22;10230;51.502;10.800;2022-08-20T10:23:41;26.00;99.90
20139;DHT22;10230;51.502;10.800;2022-08-20T10:26:08;26.10;99.90
20139;DHT22;10230;51.502;10.800;2022-08-20T10:28:34;26.10;99.90
20139;DHT22;10230;51.502;10.800;2022-08-20T10:31:00;26.10;99.90
20139;DHT22;10230;51.502;10.800;2022-08-20T10:33:26;26.00;99.90
20139;DHT22;10230;51.502;10.800;2022-08-20T10:35:52;25.90;99.90
20139;DHT22;10230;51.502;10.800;2022-08-20T10:38:17;25.80;99.90
20139;DHT22;10230;51.502;10.800;2022-08-20T10:40:43;25.70;99.90
20139;DHT22;10230;51.502;10.800;2022-08-20T10:43:09;25.60;99.90
20139;DHT22;10230;51.502;10.800;2022-08-20T10:45:35;25.50;99.90
20139;DHT22;10230;51.502;10.800;2022-08-20T10:48:00;25.40;99.90
20139;DHT22;10230;51.502;10.800;2022-08-20T10:50:26;25.40;99.90
20139;DHT22;10230;51.502;10.800;2022-08-20T10:52:52;25.30;99.90
20139;DHT22;10230;51.502;10.800;2022-08-20T10:55:18;25.30;99.90
20139;DHT22;10230;51.502;10.800;2022-08-20T10:57:44;25.20;99.90
20139;DHT22;10230;51.502;10.800;2022-08-20T11:00:15;25.20;99.90
20139;DHT22;10230;51.502;10.800;2022-08-20T11:02:41;25.20;99.90
20139;DHT22;10230;51.502;10.800;2022-08-20T11:05:08;25.20;99.90
20139;DHT22;10230;51.502;10.800;2022-08-20T11:07:39;25.20;99.90
20139;DHT22;10230;51.502;10.800;2022-08-20T11:10:07;25.30;99.90
20139;DHT22;10230;51.502;10.800;2022-08-20T11:12:33;25.30;99.90
20139;DHT22;10230;51.502;10.800;2022-08-20T11:14:59;25.40;99.90
20139;DHT22;10230;51.502;10.800;2022-08-20T11:17:30;25.50;99.90
20139;DHT22;10230;51.502;10.800;2022-08-20T11:19:57;25.60;99.90
20139;DHT22;10230;51.502;10.800;2022-08-20T11:22:23;25.70;99.90
20139;DHT22;10230;51.502;10.800;2022-08-20T11:24:50;26.00;99.90
20139;DHT22;10230;51.502;10.800;2022-08-20T11:27:44;26.20;99.90
20139;DHT22;10230;51.502;10.800;2022-08-20T11:30:12;26.40;99.90
20139;DHT22;10230;51.502;10.800;2022-08-20T11:32:38;26.60;99.90
20139;DHT22;10230;51.502;10.800;2022-08-20T11:35:04;26.80;99.90
20139;DHT22;10230;51.502;10.800;2022-08-20T11:37:31;27.00;99.90
20139;DHT22;10230;51.502;10.800;2022-08-20T11:42:23;27.20;99.90
20139;DHT22;10230;51.502;10.800;2022-08-20T11:44:49;27.30;99.90
20139;DHT22;10230;51.502;10.800;2022-08-20T11:47:26;27.30;99.90
20139;DHT22;10230;51.502;10.800;2022-08-20T11:50:02;27.40;99.90
20139;DHT22;10230;51.502;10.800;2022-08-20T11:52:28;27.30;99.90
20139;DHT22;10230;51.502;10.800;2022-08-20T11:54:55;27.50;99.90
20139;DHT22;10230;51.502;10.800;2022-08-20T11:57:22;27.70;99.90
20139;DHT22;10230;51.502;10.800;2022-08-20T11:59:53;28.40;99.90
20139;DHT22;10230;51.502;10.800;2022-08-20T12:04:46;29.10;99.90
20139;DHT22;10230;51.502;10.800;2022-08-20T12:07:18;30.00;99.90
20139;DHT22;10230;51.502;10.800;2022-08-20T12:09:44;30.20;99.90
20139;DHT22;10230;51.502;10.800;2022-08-20T12:27:28;31.70;99.90
20139;DHT22;10230;51.502;10.800;2022-08-20T12:29:56;31.50;99.90
20139;DHT22;10230;51.502;10.800;2022-08-20T12:32:24;31.10;96.70
20139;DHT22;10230;51.502;10.800;2022-08-20T12:34:50;30.70;94.20
20139;DHT22;10230;51.502;10.800;2022-08-20T12:37:19;30.30;95.20
20139;DHT22;10230;51.502;10.800;2022-08-20T12:39:48;29.90;94.60
20139;DHT22;10230;51.502;10.800;2022-08-20T12:42:15;29.40;99.50
20139;DHT22;10230;51.502;10.800;2022-08-20T12:47:15;28.40;95.40
20139;DHT22;10230;51.502;10.800;2022-08-20T12:49:43;28.00;96.40
20139;DHT22;10230;51.502;10.800;2022-08-20T12:52:11;27.80;98.50
20139;DHT22;10230;51.502;10.800;2022-08-20T12:54:37;27.60;99.00
20139;DHT22;10230;51.502;10.800;2022-08-20T12:57:03;27.60;98.20
20139;DHT22;10230;51.502;10.800;2022-08-20T12:59:29;27.60;98.30
20139;DHT22;10230;51.502;10.800;2022-08-20T13:01:55;27.70;98.50
20139;DHT22;10230;51.502;10.800;2022-08-20T13:04:21;27.80;98.20
20139;DHT22;10230;51.502;10.800;2022-08-20T13:06:47;28.00;97.90
20139;DHT22;10230;51.502;10.800;2022-08-20T13:09:13;28.20;97.70
20139;DHT22;10230;51.502;10.800;2022-08-20T13:11:39;28.30;97.00
20139;DHT22;10230;51.502;10.800;2022-08-20T13:14:05;28.50;96.80
20139;DHT22;10230;51.502;10.800;2022-08-20T13:16:30;28.60;96.50
20139;DHT22;10230;51.502;10.800;2022-08-20T13:18:56;28.70;96.30
20139;DHT22;10230;51.502;10.800;2022-08-20T13:21:22;28.90;96.10
20139;DHT22;10230;51.502;10.800;2022-08-20T13:23:47;29.00;95.80
20139;DHT22;10230;51.502;10.800;2022-08-20T13:26:13;29.20;95.40
20139;DHT22;10230;51.502;10.800;2022-08-20T13:28:39;29.30;95.20
20139;DHT22;10230;51.502;10.800;2022-08-20T13:31:05;29.30;95.10
20139;DHT22;10230;51.502;10.800;2022-08-20T13:33:30;29.40;95.00
20139;DHT22;10230;51.502;10.800;2022-08-20T13:35:56;29.40;94.90
20139;DHT22;10230;51.502;10.800;2022-08-20T13:38:22;29.30;94.90
20139;DHT22;10230;51.502;10.800;2022-08-20T13:40:48;29.30;95.10
20139;DHT22;10230;51.502;10.800;2022-08-20T13:43:14;29.30;95.60
20139;DHT22;10230;51.502;10.800;2022-08-20T13:45:40;29.40;95.90
20139;DHT22;10230;51.502;10.800;2022-08-20T13:48:07;29.50;96.10
20139;DHT22;10230;51.502;10.800;2022-08-20T13:50:33;29.40;96.10
20139;DHT22;10230;51.502;10.800;2022-08-20T13:52:59;29.20;96.50
20139;DHT22;10230;51.502;10.800;2022-08-20T13:55:26;29.00;96.60
20139;DHT22;10230;51.502;10.800;2022-08-20T13:57:53;28.90;97.50
20139;DHT22;10230;51.502;10.800;2022-08-20T14:00:27;28.70;98.70
20139;DHT22;10230;51.502;10.800;2022-08-20T14:02:54;28.50;99.60
20139;DHT22;10230;51.502;10.800;2022-08-20T14:05:20;28.20;99.90
20139;DHT22;10230;51.502;10.800;2022-08-20T14:07:46;28.10;99.90
20139;DHT22;10230;51.502;10.800;2022-08-20T14:10:19;28.10;99.90
20139;DHT22;10230;51.502;10.800;2022-08-20T14:12:45;28.20;99.90
20139;DHT22;10230;51.502;10.800;2022-08-20T14:15:11;28.30;99.90
20139;DHT22;10230;51.502;10.800;2022-08-20T14:17:39;28.40;99.90
20139;DHT22;10230;51.502;10.800;2022-08-20T14:20:12;28.50;99.90
20139;DHT22;10230;51.502;10.800;2022-08-20T14:22:38;28.80;99.90
20139;DHT22;10230;51.502;10.800;2022-08-20T14:25:05;29.10;99.90
20139;DHT22;10230;51.502;10.800;2022-08-20T14:27:32;29.30;99.90
20139;DHT22;10230;51.502;10.800;2022-08-20T14:29:58;29.60;99.90
20139;DHT22;10230;51.502;10.800;2022-08-20T14:32:25;29.70;99.90
20139;DHT22;10230;51.502;10.800;2022-08-20T14:34:52;29.90;99.90
20139;DHT22;10230;51.502;10.800;2022-08-20T14:37:24;30.10;99.90
20139;DHT22;10230;51.502;10.800;2022-08-20T14:39:54;30.20;99.90
20139;DHT22;10230;51.502;10.800;2022-08-20T14:42:21;30.20;99.90
20139;DHT22;10230;51.502;10.800;2022-08-20T14:44:48;30.20;99.90
20139;DHT22;10230;51.502;10.800;2022-08-20T14:47:23;30.10;99.90
20139;DHT22;10230;51.502;10.800;2022-08-20T14:49:50;30.10;99.80
20139;DHT22;10230;51.502;10.800;2022-08-20T14:52:17;29.90;99.70
20139;DHT22;10230;51.502;10.800;2022-08-20T14:54:44;29.80;99.60
20139;DHT22;10230;51.502;10.800;2022-08-20T14:57:10;29.60;99.60
20139;DHT22;10230;51.502;10.800;2022-08-20T14:59:36;29.50;99.90
20139;DHT22;10230;51.502;10.800;2022-08-20T15:02:08;29.30;99.90
20139;DHT22;10230;51.502;10.800;2022-08-20T15:04:35;29.10;99.30
20139;DHT22;10230;51.502;10.800;2022-08-20T15:07:02;29.10;99.70
20139;DHT22;10230;51.502;10.800;2022-08-20T15:09:29;29.00;99.30
20139;DHT22;10230;51.502;10.800;2022-08-20T15:11:56;28.90;99.10
20139;DHT22;10230;51.502;10.800;2022-08-20T15:14:21;28.90;99.80
20139;DHT22;10230;51.502;10.800;2022-08-20T15:16:47;28.80;99.50
20139;DHT22;10230;51.502;10.800;2022-08-20T15:19:13;28.70;99.70
20139;DHT22;10230;51.502;10.800;2022-08-20T15:21:39;28.60;99.90
20139;DHT22;10230;51.502;10.800;2022-08-20T15:24:06;28.30;99.90
20139;DHT22;10230;51.502;10.800;2022-08-20T15:26:31;28.10;99.90
20139;DHT22;10230;51.502;10.800;2022-08-20T15:28:57;27.90;99.90
20139;DHT22;10230;51.502;10.800;2022-08-20T15:31:23;27.90;99.90
20139;DHT22;10230;51.502;10.800;2022-08-20T15:36:15;27.40;99.90
20139;DHT22;10230;51.502;10.800;2022-08-20T15:38:40;27.30;99.90
20139;DHT22;10230;51.502;10.800;2022-08-20T15:41:06;27.20;99.90
20139;DHT22;10230;51.502;10.800;2022-08-20T15:43:32;26.90;99.90
